sensor_id;sensor_type;location;lat;lon;timestamp;P1;durP1;ratioP1;P2;durP2;ratioP2
71435;SDS011;59251;51.326;12.370;2022-12-01T00:00:17;90.28;;;26.08;;
71435;SDS011;59251;51.326;12.370;2022-12-01T00:02:42;89.40;;;25.55;;
71435;SDS011;59251;51.326;12.370;2022-12-01T00:05:08;88.70;;;25.00;;
71435;SDS011;59251;51.326;12.370;2022-12-01T00:07:34;91.53;;;24.43;;
71435;SDS011;59251;51.326;12.370;2022-12-01T00:09:59;83.70;;;24.08;;
71435;SDS011;59251;51.326;12.370;2022-12-01T00:12:43;88.22;;;25.63;;
71435;SDS011;59251;51.326;12.370;2022-12-01T00:15:09;102.93;;;26.27;;
71435;SDS011;59251;51.326;12.370;2022-12-01T00:17:35;88.28;;;24.20;;
71435;SDS011;59251;51.326;12.370;2022-12-01T00:20:01;80.40;;;22.58;;
71435;SDS011;59251;51.326;12.370;2022-12-01T00:22:27;87.03;;;25.25;;
71435;SDS011;59251;51.326;12.370;2022-12-01T00:24:53;96.43;;;29.47;;
71435;SDS011;59251;51.326;12.370;2022-12-01T00:27:18;82.37;;;22.07;;
71435;SDS011;59251;51.326;12.370;2022-12-01T00:29:44;96.47;;;25.77;;
71435;SDS011;59251;51.326;12.370;2022-12-01T00:32:11;86.35;;;22.77;;
71435;SDS011;59251;51.326;12.370;2022-12-01T00:34:36;83.75;;;22.98;;
71435;SDS011;59251;51.326;12.370;2022-12-01T00:37:02;86.93;;;26.57;;
71435;SDS011;59251;51.326;12.370;2022-12-01T00:39:28;81.32;;;21.45;;
71435;SDS011;59251;51.326;12.370;2022-12-01T00:41:54;75.53;;;20.53;;
71435;SDS011;59251;51.326;12.370;2022-12-01T00:44:19;74.60;;;20.30;;
71435;SDS011;59251;51.326;12.370;2022-12-01T00:46:44;81.83;;;22.43;;
71435;SDS011;59251;51.326;12.370;2022-12-01T00:49:11;67.82;;;20.30;;
71435;SDS011;59251;51.326;12.370;2022-12-01T00:51:37;84.53;;;24.20;;
71435;SDS011;59251;51.326;12.370;2022-12-01T00:54:02;65.50;;;18.42;;
71435;SDS011;59251;51.326;12.370;2022-12-01T00:56:28;69.83;;;23.37;;
71435;SDS011;59251;51.326;12.370;2022-12-01T00:58:53;86.47;;;22.33;;
71435;SDS011;59251;51.326;12.370;2022-12-01T01:01:18;74.80;;;20.67;;
71435;SDS011;59251;51.326;12.370;2022-12-01T01:03:44;69.23;;;19.00;;
71435;SDS011;59251;51.326;12.370;2022-12-01T01:06:10;76.53;;;22.87;;
71435;SDS011;59251;51.326;12.370;2022-12-01T01:08:36;63.67;;;18.25;;
71435;SDS011;59251;51.326;12.370;2022-12-01T01:11:02;66.65;;;19.58;;
71435;SDS011;59251;51.326;12.370;2022-12-01T01:13:28;73.23;;;20.50;;
71435;SDS011;59251;51.326;12.370;2022-12-01T01:16:08;75.18;;;21.58;;
71435;SDS011;59251;51.326;12.370;2022-12-01T01:18:38;78.10;;;21.92;;
71435;SDS011;59251;51.326;12.370;2022-12-01T01:21:05;76.60;;;19.03;;
71435;SDS011;59251;51.326;12.370;2022-12-01T01:23:32;65.35;;;18.48;;
71435;SDS011;59251;51.326;12.370;2022-12-01T01:26:02;80.25;;;23.52;;
71435;SDS011;59251;51.326;12.370;2022-12-01T01:28:32;71.17;;;21.13;;
71435;SDS011;59251;51.326;12.370;2022-12-01T01:30:58;82.60;;;21.30;;
71435;SDS011;59251;51.326;12.370;2022-12-01T01:33:24;80.60;;;22.27;;
71435;SDS011;59251;51.326;12.370;2022-12-01T01:35:50;80.13;;;20.98;;
71435;SDS011;59251;51.326;12.370;2022-12-01T01:38:15;76.35;;;23.23;;
71435;SDS011;59251;51.326;12.370;2022-12-01T01:40:44;78.03;;;20.33;;
71435;SDS011;59251;51.326;12.370;2022-12-01T01:43:17;76.63;;;20.27;;
71435;SDS011;59251;51.326;12.370;2022-12-01T01:46:03;67.57;;;18.88;;
71435;SDS011;59251;51.326;12.370;2022-12-01T01:48:30;63.27;;;17.67;;
71435;SDS011;59251;51.326;12.370;2022-12-01T01:50:56;69.10;;;19.65;;
71435;SDS011;59251;51.326;12.370;2022-12-01T01:53:22;58.47;;;18.05;;
71435;SDS011;59251;51.326;12.370;2022-12-01T01:55:47;67.43;;;19.23;;
71435;SDS011;59251;51.326;12.370;2022-12-01T01:58:13;65.13;;;20.53;;
71435;SDS011;59251;51.326;12.370;2022-12-01T02:00:39;65.47;;;17.52;;
71435;SDS011;59251;51.326;12.370;2022-12-01T02:03:07;69.32;;;17.45;;
71435;SDS011;59251;51.326;12.370;2022-12-01T02:05:34;61.95;;;18.33;;
71435;SDS011;59251;51.326;12.370;2022-12-01T02:08:02;64.72;;;18.60;;
71435;SDS011;59251;51.326;12.370;2022-12-01T02:13:43;66.23;;;17.47;;
71435;SDS011;59251;51.326;12.370;2022-12-01T02:16:13;69.97;;;18.85;;
71435;SDS011;59251;51.326;12.370;2022-12-01T02:21:36;77.95;;;21.60;;
71435;SDS011;59251;51.326;12.370;2022-12-01T02:24:46;71.15;;;19.90;;
71435;SDS011;59251;51.326;12.370;2022-12-01T02:30:16;64.68;;;17.02;;
71435;SDS011;59251;51.326;12.370;2022-12-01T02:33:01;69.47;;;19.85;;
71435;SDS011;59251;51.326;12.370;2022-12-01T02:38:25;69.68;;;19.27;;
71435;SDS011;59251;51.326;12.370;2022-12-01T02:46:40;62.83;;;19.05;;
71435;SDS011;59251;51.326;12.370;2022-12-01T02:49:12;73.97;;;19.83;;
71435;SDS011;59251;51.326;12.370;2022-12-01T02:51:40;67.03;;;17.33;;
71435;SDS011;59251;51.326;12.370;2022-12-01T02:54:11;59.20;;;16.73;;
71435;SDS011;59251;51.326;12.370;2022-12-01T02:56:39;64.97;;;18.83;;
71435;SDS011;59251;51.326;12.370;2022-12-01T02:59:13;65.15;;;18.45;;
71435;SDS011;59251;51.326;12.370;2022-12-01T03:17:28;64.80;;;18.17;;
71435;SDS011;59251;51.326;12.370;2022-12-01T03:20:04;63.83;;;17.93;;
71435;SDS011;59251;51.326;12.370;2022-12-01T03:22:57;64.40;;;19.13;;
71435;SDS011;59251;51.326;12.370;2022-12-01T03:25:28;61.25;;;17.00;;
71435;SDS011;59251;51.326;12.370;2022-12-01T03:27:54;70.07;;;19.63;;
71435;SDS011;59251;51.326;12.370;2022-12-01T03:30:24;61.20;;;17.75;;
71435;SDS011;59251;51.326;12.370;2022-12-01T03:32:53;53.30;;;16.37;;
71435;SDS011;59251;51.326;12.370;2022-12-01T03:35:27;55.35;;;16.67;;
71435;SDS011;59251;51.326;12.370;2022-12-01T03:40:43;60.30;;;19.13;;
71435;SDS011;59251;51.326;12.370;2022-12-01T03:43:12;60.53;;;17.42;;
71435;SDS011;59251;51.326;12.370;2022-12-01T03:45:55;62.80;;;17.90;;
71435;SDS011;59251;51.326;12.370;2022-12-01T03:48:32;66.80;;;18.65;;
71435;SDS011;59251;51.326;12.370;2022-12-01T03:53:37;56.25;;;14.90;;
71435;SDS011;59251;51.326;12.370;2022-12-01T03:56:08;56.90;;;16.23;;
71435;SDS011;59251;51.326;12.370;2022-12-01T03:58:38;69.32;;;17.38;;
71435;SDS011;59251;51.326;12.370;2022-12-01T04:01:06;60.90;;;16.38;;
71435;SDS011;59251;51.326;12.370;2022-12-01T04:03:32;66.97;;;16.42;;
71435;SDS011;59251;51.326;12.370;2022-12-01T04:05:57;69.37;;;20.00;;
71435;SDS011;59251;51.326;12.370;2022-12-01T04:08:23;74.80;;;19.47;;
71435;SDS011;59251;51.326;12.370;2022-12-01T04:10:49;73.30;;;19.02;;
71435;SDS011;59251;51.326;12.370;2022-12-01T04:13:14;67.47;;;17.03;;
71435;SDS011;59251;51.326;12.370;2022-12-01T04:15:47;72.30;;;18.40;;
71435;SDS011;59251;51.326;12.370;2022-12-01T04:18:14;65.53;;;17.05;;
71435;SDS011;59251;51.326;12.370;2022-12-01T04:20:39;66.00;;;17.30;;
71435;SDS011;59251;51.326;12.370;2022-12-01T04:23:07;67.63;;;16.25;;
71435;SDS011;59251;51.326;12.370;2022-12-01T04:25:32;68.17;;;18.53;;
71435;SDS011;59251;51.326;12.370;2022-12-01T04:27:58;72.82;;;18.77;;
71435;SDS011;59251;51.326;12.370;2022-12-01T04:30:23;68.60;;;16.77;;
71435;SDS011;59251;51.326;12.370;2022-12-01T04:32:49;70.47;;;18.03;;
71435;SDS011;59251;51.326;12.370;2022-12-01T04:35:14;66.97;;;15.40;;
71435;SDS011;59251;51.326;12.370;2022-12-01T04:37:40;80.00;;;20.10;;
71435;SDS011;59251;51.326;12.370;2022-12-01T04:40:05;80.63;;;18.73;;
71435;SDS011;59251;51.326;12.370;2022-12-01T04:42:31;72.45;;;18.75;;
71435;SDS011;59251;51.326;12.370;2022-12-01T04:44:57;78.90;;;18.83;;
71435;SDS011;59251;51.326;12.370;2022-12-01T04:47:22;76.22;;;17.83;;
71435;SDS011;59251;51.326;12.370;2022-12-01T04:49:48;84.87;;;21.13;;
71435;SDS011;59251;51.326;12.370;2022-12-01T04:52:13;82.43;;;17.23;;
71435;SDS011;59251;51.326;12.370;2022-12-01T04:54:39;92.10;;;18.87;;
71435;SDS011;59251;51.326;12.370;2022-12-01T04:57:04;81.20;;;18.20;;
71435;SDS011;59251;51.326;12.370;2022-12-01T04:59:29;87.13;;;19.05;;
71435;SDS011;59251;51.326;12.370;2022-12-01T05:01:55;71.63;;;18.50;;
71435;SDS011;59251;51.326;12.370;2022-12-01T05:04:20;82.87;;;18.20;;
71435;SDS011;59251;51.326;12.370;2022-12-01T05:06:46;94.80;;;18.63;;
71435;SDS011;59251;51.326;12.370;2022-12-01T05:09:12;85.30;;;18.63;;
71435;SDS011;59251;51.326;12.370;2022-12-01T05:11:38;93.55;;;19.52;;
71435;SDS011;59251;51.326;12.370;2022-12-01T05:14:04;93.70;;;18.48;;
71435;SDS011;59251;51.326;12.370;2022-12-01T05:16:30;83.25;;;18.90;;
71435;SDS011;59251;51.326;12.370;2022-12-01T05:18:58;75.57;;;18.08;;
71435;SDS011;59251;51.326;12.370;2022-12-01T05:21:44;72.15;;;18.05;;
71435;SDS011;59251;51.326;12.370;2022-12-01T05:24:11;83.18;;;19.88;;
71435;SDS011;59251;51.326;12.370;2022-12-01T05:26:37;74.27;;;17.90;;
71435;SDS011;59251;51.326;12.370;2022-12-01T05:29:04;71.72;;;15.75;;
71435;SDS011;59251;51.326;12.370;2022-12-01T05:31:29;69.72;;;17.27;;
71435;SDS011;59251;51.326;12.370;2022-12-01T05:33:55;77.03;;;18.33;;
71435;SDS011;59251;51.326;12.370;2022-12-01T05:36:20;76.87;;;18.67;;
71435;SDS011;59251;51.326;12.370;2022-12-01T05:38:46;69.43;;;17.75;;
71435;SDS011;59251;51.326;12.370;2022-12-01T05:41:11;62.63;;;16.43;;
71435;SDS011;59251;51.326;12.370;2022-12-01T05:43:37;66.50;;;16.30;;
71435;SDS011;59251;51.326;12.370;2022-12-01T05:46:02;62.93;;;17.03;;
71435;SDS011;59251;51.326;12.370;2022-12-01T05:48:28;66.28;;;16.60;;
71435;SDS011;59251;51.326;12.370;2022-12-01T05:50:53;70.13;;;17.70;;
71435;SDS011;59251;51.326;12.370;2022-12-01T05:53:19;69.40;;;17.30;;
71435;SDS011;59251;51.326;12.370;2022-12-01T05:55:45;91.82;;;22.05;;
71435;SDS011;59251;51.326;12.370;2022-12-01T05:58:10;68.90;;;16.63;;
71435;SDS011;59251;51.326;12.370;2022-12-01T06:00:36;77.53;;;17.80;;
71435;SDS011;59251;51.326;12.370;2022-12-01T06:03:03;95.80;;;18.27;;
71435;SDS011;59251;51.326;12.370;2022-12-01T06:05:29;75.78;;;17.90;;
71435;SDS011;59251;51.326;12.370;2022-12-01T06:07:55;60.83;;;16.23;;
71435;SDS011;59251;51.326;12.370;2022-12-01T06:10:20;61.25;;;15.65;;
71435;SDS011;59251;51.326;12.370;2022-12-01T06:12:46;73.50;;;16.93;;
71435;SDS011;59251;51.326;12.370;2022-12-01T06:15:11;71.30;;;16.63;;
71435;SDS011;59251;51.326;12.370;2022-12-01T06:17:38;76.57;;;17.52;;
71435;SDS011;59251;51.326;12.370;2022-12-01T06:20:03;74.00;;;16.40;;
71435;SDS011;59251;51.326;12.370;2022-12-01T06:22:29;74.72;;;17.45;;
71435;SDS011;59251;51.326;12.370;2022-12-01T06:24:55;78.57;;;19.07;;
71435;SDS011;59251;51.326;12.370;2022-12-01T06:27:20;64.88;;;16.60;;
71435;SDS011;59251;51.326;12.370;2022-12-01T06:29:45;79.68;;;17.20;;
71435;SDS011;59251;51.326;12.370;2022-12-01T06:32:12;72.25;;;15.05;;
71435;SDS011;59251;51.326;12.370;2022-12-01T06:34:38;71.07;;;17.33;;
71435;SDS011;59251;51.326;12.370;2022-12-01T06:37:03;65.00;;;16.23;;
71435;SDS011;59251;51.326;12.370;2022-12-01T06:39:29;70.17;;;16.43;;
71435;SDS011;59251;51.326;12.370;2022-12-01T06:41:54;57.27;;;15.47;;
71435;SDS011;59251;51.326;12.370;2022-12-01T06:44:19;62.73;;;15.73;;
71435;SDS011;59251;51.326;12.370;2022-12-01T06:46:45;60.43;;;15.97;;
71435;SDS011;59251;51.326;12.370;2022-12-01T06:49:11;62.85;;;15.07;;
71435;SDS011;59251;51.326;12.370;2022-12-01T06:51:37;54.47;;;15.23;;
71435;SDS011;59251;51.326;12.370;2022-12-01T06:54:03;43.63;;;13.23;;
71435;SDS011;59251;51.326;12.370;2022-12-01T06:56:28;50.17;;;13.18;;
71435;SDS011;59251;51.326;12.370;2022-12-01T06:58:53;49.30;;;14.02;;
71435;SDS011;59251;51.326;12.370;2022-12-01T07:01:19;50.03;;;13.37;;
71435;SDS011;59251;51.326;12.370;2022-12-01T07:03:48;49.37;;;14.00;;
71435;SDS011;59251;51.326;12.370;2022-12-01T07:06:15;53.78;;;15.73;;
71435;SDS011;59251;51.326;12.370;2022-12-01T07:08:41;55.25;;;15.05;;
71435;SDS011;59251;51.326;12.370;2022-12-01T07:11:07;58.97;;;15.63;;
71435;SDS011;59251;51.326;12.370;2022-12-01T07:13:36;49.58;;;13.95;;
71435;SDS011;59251;51.326;12.370;2022-12-01T07:16:02;49.90;;;14.35;;
71435;SDS011;59251;51.326;12.370;2022-12-01T07:18:28;48.05;;;13.77;;
71435;SDS011;59251;51.326;12.370;2022-12-01T07:20:57;51.80;;;14.20;;
71435;SDS011;59251;51.326;12.370;2022-12-01T07:23:31;53.85;;;14.20;;
71435;SDS011;59251;51.326;12.370;2022-12-01T07:26:07;61.30;;;14.93;;
71435;SDS011;59251;51.326;12.370;2022-12-01T07:28:35;55.17;;;14.52;;
71435;SDS011;59251;51.326;12.370;2022-12-01T07:31:04;58.70;;;17.07;;
71435;SDS011;59251;51.326;12.370;2022-12-01T07:33:32;59.22;;;16.50;;
71435;SDS011;59251;51.326;12.370;2022-12-01T07:35:57;71.70;;;18.00;;
71435;SDS011;59251;51.326;12.370;2022-12-01T07:38:23;83.05;;;18.25;;
71435;SDS011;59251;51.326;12.370;2022-12-01T07:40:48;58.00;;;15.40;;
71435;SDS011;59251;51.326;12.370;2022-12-01T07:43:14;68.80;;;17.17;;
71435;SDS011;59251;51.326;12.370;2022-12-01T07:45:39;74.43;;;16.73;;
71435;SDS011;59251;51.326;12.370;2022-12-01T07:48:05;80.20;;;17.93;;
71435;SDS011;59251;51.326;12.370;2022-12-01T07:50:30;84.05;;;19.33;;
71435;SDS011;59251;51.326;12.370;2022-12-01T07:52:56;83.97;;;19.90;;
71435;SDS011;59251;51.326;12.370;2022-12-01T07:55:22;76.78;;;17.33;;
71435;SDS011;59251;51.326;12.370;2022-12-01T07:57:47;78.50;;;19.43;;
71435;SDS011;59251;51.326;12.370;2022-12-01T08:00:13;73.37;;;17.37;;
71435;SDS011;59251;51.326;12.370;2022-12-01T08:02:39;78.90;;;18.42;;
71435;SDS011;59251;51.326;12.370;2022-12-01T08:05:04;75.83;;;16.57;;
71435;SDS011;59251;51.326;12.370;2022-12-01T08:07:30;61.20;;;15.90;;
71435;SDS011;59251;51.326;12.370;2022-12-01T08:09:55;65.40;;;16.27;;
71435;SDS011;59251;51.326;12.370;2022-12-01T08:12:20;76.30;;;18.00;;
71435;SDS011;59251;51.326;12.370;2022-12-01T08:14:46;78.73;;;18.80;;
71435;SDS011;59251;51.326;12.370;2022-12-01T08:17:11;77.27;;;17.23;;
71435;SDS011;59251;51.326;12.370;2022-12-01T08:19:37;75.60;;;19.10;;
71435;SDS011;59251;51.326;12.370;2022-12-01T08:22:02;93.78;;;20.38;;
71435;SDS011;59251;51.326;12.370;2022-12-01T08:24:27;91.10;;;19.13;;
71435;SDS011;59251;51.326;12.370;2022-12-01T08:26:53;107.80;;;21.50;;
71435;SDS011;59251;51.326;12.370;2022-12-01T08:29:18;98.20;;;20.43;;
71435;SDS011;59251;51.326;12.370;2022-12-01T08:31:44;86.47;;;18.90;;
71435;SDS011;59251;51.326;12.370;2022-12-01T08:34:09;88.10;;;21.13;;
71435;SDS011;59251;51.326;12.370;2022-12-01T08:36:35;91.00;;;23.88;;
71435;SDS011;59251;51.326;12.370;2022-12-01T08:39:01;86.97;;;19.67;;
71435;SDS011;59251;51.326;12.370;2022-12-01T08:41:27;97.38;;;20.35;;
71435;SDS011;59251;51.326;12.370;2022-12-01T08:43:53;105.05;;;21.13;;
71435;SDS011;59251;51.326;12.370;2022-12-01T08:46:18;102.67;;;21.73;;
71435;SDS011;59251;51.326;12.370;2022-12-01T08:48:44;87.82;;;20.30;;
71435;SDS011;59251;51.326;12.370;2022-12-01T08:51:11;82.93;;;17.77;;
71435;SDS011;59251;51.326;12.370;2022-12-01T08:53:39;80.63;;;20.13;;
71435;SDS011;59251;51.326;12.370;2022-12-01T08:56:11;87.70;;;19.60;;
71435;SDS011;59251;51.326;12.370;2022-12-01T08:58:39;75.85;;;18.38;;
71435;SDS011;59251;51.326;12.370;2022-12-01T09:01:06;89.40;;;19.97;;
71435;SDS011;59251;51.326;12.370;2022-12-01T09:03:33;75.95;;;20.02;;
71435;SDS011;59251;51.326;12.370;2022-12-01T09:06:02;94.47;;;20.23;;
71435;SDS011;59251;51.326;12.370;2022-12-01T09:08:29;96.28;;;22.65;;
71435;SDS011;59251;51.326;12.370;2022-12-01T09:10:55;96.17;;;21.63;;
71435;SDS011;59251;51.326;12.370;2022-12-01T09:13:20;85.25;;;19.77;;
71435;SDS011;59251;51.326;12.370;2022-12-01T09:15:59;94.10;;;19.47;;
71435;SDS011;59251;51.326;12.370;2022-12-01T09:18:27;74.82;;;18.98;;
71435;SDS011;59251;51.326;12.370;2022-12-01T09:20:53;75.30;;;18.45;;
71435;SDS011;59251;51.326;12.370;2022-12-01T09:23:19;72.50;;;18.87;;
71435;SDS011;59251;51.326;12.370;2022-12-01T09:25:46;84.75;;;19.15;;
71435;SDS011;59251;51.326;12.370;2022-12-01T09:28:12;83.82;;;19.23;;
71435;SDS011;59251;51.326;12.370;2022-12-01T09:30:38;78.85;;;18.20;;
71435;SDS011;59251;51.326;12.370;2022-12-01T09:33:04;75.80;;;19.20;;
71435;SDS011;59251;51.326;12.370;2022-12-01T09:35:29;81.70;;;22.40;;
71435;SDS011;59251;51.326;12.370;2022-12-01T09:37:56;80.05;;;20.33;;
71435;SDS011;59251;51.326;12.370;2022-12-01T09:40:28;86.07;;;22.35;;
71435;SDS011;59251;51.326;12.370;2022-12-01T09:42:57;95.27;;;25.03;;
71435;SDS011;59251;51.326;12.370;2022-12-01T09:45:26;91.80;;;20.95;;
71435;SDS011;59251;51.326;12.370;2022-12-01T09:47:55;85.22;;;19.60;;
71435;SDS011;59251;51.326;12.370;2022-12-01T09:50:24;83.93;;;19.38;;
71435;SDS011;59251;51.326;12.370;2022-12-01T09:53:01;85.03;;;22.23;;
71435;SDS011;59251;51.326;12.370;2022-12-01T09:55:30;89.13;;;21.30;;
71435;SDS011;59251;51.326;12.370;2022-12-01T09:57:58;97.05;;;22.52;;
71435;SDS011;59251;51.326;12.370;2022-12-01T10:00:27;84.90;;;20.80;;
71435;SDS011;59251;51.326;12.370;2022-12-01T10:03:09;73.32;;;18.73;;
71435;SDS011;59251;51.326;12.370;2022-12-01T10:05:47;84.53;;;19.25;;
71435;SDS011;59251;51.326;12.370;2022-12-01T10:08:17;87.47;;;20.23;;
71435;SDS011;59251;51.326;12.370;2022-12-01T10:10:46;82.13;;;21.05;;
71435;SDS011;59251;51.326;12.370;2022-12-01T10:18:30;79.68;;;19.38;;
71435;SDS011;59251;51.326;12.370;2022-12-01T10:21:40;88.10;;;20.73;;
71435;SDS011;59251;51.326;12.370;2022-12-01T10:24:35;75.80;;;17.35;;
71435;SDS011;59251;51.326;12.370;2022-12-01T10:30:09;71.25;;;18.45;;
71435;SDS011;59251;51.326;12.370;2022-12-01T10:32:43;83.25;;;20.70;;
71435;SDS011;59251;51.326;12.370;2022-12-01T10:35:21;80.63;;;20.87;;
71435;SDS011;59251;51.326;12.370;2022-12-01T10:38:11;93.25;;;20.15;;
71435;SDS011;59251;51.326;12.370;2022-12-01T10:40:39;83.78;;;19.95;;
71435;SDS011;59251;51.326;12.370;2022-12-01T10:43:07;81.80;;;19.25;;
71435;SDS011;59251;51.326;12.370;2022-12-01T10:45:34;79.05;;;19.58;;
71435;SDS011;59251;51.326;12.370;2022-12-01T10:48:15;85.57;;;21.37;;
71435;SDS011;59251;51.326;12.370;2022-12-01T10:50:42;85.88;;;21.33;;
71435;SDS011;59251;51.326;12.370;2022-12-01T10:55:48;77.22;;;18.52;;
71435;SDS011;59251;51.326;12.370;2022-12-01T10:58:23;65.82;;;16.88;;
71435;SDS011;59251;51.326;12.370;2022-12-01T11:01:14;69.30;;;18.17;;
71435;SDS011;59251;51.326;12.370;2022-12-01T11:03:40;73.55;;;19.42;;
71435;SDS011;59251;51.326;12.370;2022-12-01T11:06:05;74.63;;;19.83;;
71435;SDS011;59251;51.326;12.370;2022-12-01T11:11:30;94.00;;;23.10;;
71435;SDS011;59251;51.326;12.370;2022-12-01T11:14:05;85.90;;;22.60;;
71435;SDS011;59251;51.326;12.370;2022-12-01T11:16:43;97.78;;;25.35;;
71435;SDS011;59251;51.326;12.370;2022-12-01T11:21:56;112.85;;;28.35;;
71435;SDS011;59251;51.326;12.370;2022-12-01T11:24:27;90.47;;;20.17;;
71435;SDS011;59251;51.326;12.370;2022-12-01T11:27:19;90.30;;;18.98;;
71435;SDS011;59251;51.326;12.370;2022-12-01T11:29:47;95.43;;;21.05;;
71435;SDS011;59251;51.326;12.370;2022-12-01T11:37:32;84.47;;;18.90;;
71435;SDS011;59251;51.326;12.370;2022-12-01T11:40:14;84.97;;;20.33;;
71435;SDS011;59251;51.326;12.370;2022-12-01T11:42:48;84.20;;;21.33;;
71435;SDS011;59251;51.326;12.370;2022-12-01T11:48:05;85.20;;;20.92;;
71435;SDS011;59251;51.326;12.370;2022-12-01T11:50:43;82.13;;;20.67;;
71435;SDS011;59251;51.326;12.370;2022-12-01T11:58:37;85.97;;;22.90;;
71435;SDS011;59251;51.326;12.370;2022-12-01T12:01:03;85.30;;;22.40;;
71435;SDS011;59251;51.326;12.370;2022-12-01T12:03:51;89.97;;;24.85;;
71435;SDS011;59251;51.326;12.370;2022-12-01T12:09:29;100.50;;;24.70;;
71435;SDS011;59251;51.326;12.370;2022-12-01T12:17:42;90.35;;;24.40;;
71435;SDS011;59251;51.326;12.370;2022-12-01T12:26:18;99.50;;;24.35;;
71435;SDS011;59251;51.326;12.370;2022-12-01T12:47:57;103.72;;;26.08;;
71435;SDS011;59251;51.326;12.370;2022-12-01T12:53:18;95.53;;;23.98;;
71435;SDS011;59251;51.326;12.370;2022-12-01T12:55:51;92.72;;;23.30;;
71435;SDS011;59251;51.326;12.370;2022-12-01T13:01:14;92.07;;;22.95;;
71435;SDS011;59251;51.326;12.370;2022-12-01T13:06:10;101.20;;;29.95;;
71435;SDS011;59251;51.326;12.370;2022-12-01T13:08:42;104.13;;;25.35;;
71435;SDS011;59251;51.326;12.370;2022-12-01T13:11:22;99.72;;;24.05;;
71435;SDS011;59251;51.326;12.370;2022-12-01T13:14:04;106.28;;;27.20;;
71435;SDS011;59251;51.326;12.370;2022-12-01T13:16:35;112.40;;;28.77;;
71435;SDS011;59251;51.326;12.370;2022-12-01T13:21:38;113.60;;;26.42;;
71435;SDS011;59251;51.326;12.370;2022-12-01T13:24:08;111.82;;;31.13;;
71435;SDS011;59251;51.326;12.370;2022-12-01T13:26:36;116.47;;;30.88;;
71435;SDS011;59251;51.326;12.370;2022-12-01T13:29:04;113.43;;;29.43;;
71435;SDS011;59251;51.326;12.370;2022-12-01T13:31:41;113.75;;;28.70;;
71435;SDS011;59251;51.326;12.370;2022-12-01T13:34:17;95.20;;;22.88;;
71435;SDS011;59251;51.326;12.370;2022-12-01T13:36:49;104.25;;;25.85;;
71435;SDS011;59251;51.326;12.370;2022-12-01T13:39:28;89.60;;;24.50;;
71435;SDS011;59251;51.326;12.370;2022-12-01T13:42:15;84.30;;;25.27;;
71435;SDS011;59251;51.326;12.370;2022-12-01T13:49:45;85.13;;;23.70;;
71435;SDS011;59251;51.326;12.370;2022-12-01T13:55:43;75.70;;;22.08;;
71435;SDS011;59251;51.326;12.370;2022-12-01T14:00:32;83.57;;;23.63;;
71435;SDS011;59251;51.326;12.370;2022-12-01T14:03:44;81.22;;;24.08;;
71435;SDS011;59251;51.326;12.370;2022-12-01T14:08:23;83.43;;;25.77;;
71435;SDS011;59251;51.326;12.370;2022-12-01T14:13:32;77.73;;;23.30;;
71435;SDS011;59251;51.326;12.370;2022-12-01T14:16:09;72.78;;;22.17;;
71435;SDS011;59251;51.326;12.370;2022-12-01T14:18:35;80.63;;;24.20;;
71435;SDS011;59251;51.326;12.370;2022-12-01T14:21:05;72.53;;;21.38;;
71435;SDS011;59251;51.326;12.370;2022-12-01T14:23:35;70.55;;;21.00;;
71435;SDS011;59251;51.326;12.370;2022-12-01T14:26:04;70.72;;;22.40;;
71435;SDS011;59251;51.326;12.370;2022-12-01T14:34:02;81.65;;;24.65;;
71435;SDS011;59251;51.326;12.370;2022-12-01T14:36:39;87.07;;;26.15;;
71435;SDS011;59251;51.326;12.370;2022-12-01T14:41:54;73.35;;;23.08;;
71435;SDS011;59251;51.326;12.370;2022-12-01T14:44:32;73.83;;;21.33;;
71435;SDS011;59251;51.326;12.370;2022-12-01T14:50:06;72.40;;;20.20;;
71435;SDS011;59251;51.326;12.370;2022-12-01T14:52:40;70.60;;;20.52;;
71435;SDS011;59251;51.326;12.370;2022-12-01T14:55:18;73.03;;;20.15;;
71435;SDS011;59251;51.326;12.370;2022-12-01T14:57:47;67.50;;;21.20;;
71435;SDS011;59251;51.326;12.370;2022-12-01T15:00:16;78.70;;;25.17;;
71435;SDS011;59251;51.326;12.370;2022-12-01T15:02:47;74.00;;;22.02;;
71435;SDS011;59251;51.326;12.370;2022-12-01T15:05:16;76.47;;;21.48;;
71435;SDS011;59251;51.326;12.370;2022-12-01T15:07:45;78.07;;;21.90;;
71435;SDS011;59251;51.326;12.370;2022-12-01T15:10:23;71.23;;;20.97;;
71435;SDS011;59251;51.326;12.370;2022-12-01T15:13:12;68.15;;;20.98;;
71435;SDS011;59251;51.326;12.370;2022-12-01T15:15:52;67.28;;;20.45;;
71435;SDS011;59251;51.326;12.370;2022-12-01T15:18:40;86.47;;;24.35;;
71435;SDS011;59251;51.326;12.370;2022-12-01T15:21:06;83.38;;;22.85;;
71435;SDS011;59251;51.326;12.370;2022-12-01T15:23:33;82.77;;;23.17;;
71435;SDS011;59251;51.326;12.370;2022-12-01T15:25:59;86.00;;;26.50;;
71435;SDS011;59251;51.326;12.370;2022-12-01T15:28:28;86.47;;;24.03;;
71435;SDS011;59251;51.326;12.370;2022-12-01T15:30:55;90.20;;;26.60;;
71435;SDS011;59251;51.326;12.370;2022-12-01T15:35:53;85.80;;;24.07;;
71435;SDS011;59251;51.326;12.370;2022-12-01T15:38:20;78.45;;;23.67;;
71435;SDS011;59251;51.326;12.370;2022-12-01T15:40:49;77.40;;;22.63;;
71435;SDS011;59251;51.326;12.370;2022-12-01T15:43:20;74.90;;;24.30;;
71435;SDS011;59251;51.326;12.370;2022-12-01T15:45:57;76.38;;;21.27;;
71435;SDS011;59251;51.326;12.370;2022-12-01T15:48:26;74.60;;;20.70;;
71435;SDS011;59251;51.326;12.370;2022-12-01T15:53:46;74.57;;;21.17;;
71435;SDS011;59251;51.326;12.370;2022-12-01T15:56:15;71.70;;;23.35;;
71435;SDS011;59251;51.326;12.370;2022-12-01T15:58:47;82.95;;;21.73;;
71435;SDS011;59251;51.326;12.370;2022-12-01T16:01:14;79.50;;;22.83;;
71435;SDS011;59251;51.326;12.370;2022-12-01T16:03:52;72.43;;;19.83;;
71435;SDS011;59251;51.326;12.370;2022-12-01T16:06:21;73.97;;;23.10;;
71435;SDS011;59251;51.326;12.370;2022-12-01T16:08:56;70.57;;;21.23;;
71435;SDS011;59251;51.326;12.370;2022-12-01T16:11:24;75.20;;;21.08;;
71435;SDS011;59251;51.326;12.370;2022-12-01T16:19:04;69.03;;;21.63;;
71435;SDS011;59251;51.326;12.370;2022-12-01T16:22:30;72.57;;;21.07;;
71435;SDS011;59251;51.326;12.370;2022-12-01T16:24:49;75.10;;;22.42;;
71435;SDS011;59251;51.326;12.370;2022-12-01T16:27:23;65.88;;;22.17;;
71435;SDS011;59251;51.326;12.370;2022-12-01T16:30:00;71.57;;;20.70;;
71435;SDS011;59251;51.326;12.370;2022-12-01T16:35:02;82.10;;;23.70;;
71435;SDS011;59251;51.326;12.370;2022-12-01T16:37:28;63.63;;;19.98;;
71435;SDS011;59251;51.326;12.370;2022-12-01T16:39:54;70.80;;;21.42;;
71435;SDS011;59251;51.326;12.370;2022-12-01T16:42:20;66.03;;;21.27;;
71435;SDS011;59251;51.326;12.370;2022-12-01T16:44:46;69.57;;;21.25;;
71435;SDS011;59251;51.326;12.370;2022-12-01T16:47:19;63.10;;;21.60;;
71435;SDS011;59251;51.326;12.370;2022-12-01T16:49:49;65.13;;;20.55;;
71435;SDS011;59251;51.326;12.370;2022-12-01T16:52:16;70.03;;;20.88;;
71435;SDS011;59251;51.326;12.370;2022-12-01T16:54:42;73.57;;;20.55;;